createdAt,value
2023-05-09T00:00:07.048Z,4.28
2023-05-09T00:02:37.263Z,3.75
2023-05-09T00:05:08.607Z,3.83
2023-05-09T00:07:44.562Z,4.20
2023-05-09T00:10:16.275Z,4.25
2023-05-09T00:12:49.218Z,4.22
2023-05-09T00:15:27.404Z,3.97
2023-05-09T00:17:57.390Z,4.18
2023-05-09T00:20:34.123Z,3.90
2023-05-09T00:23:03.986Z,3.85
2023-05-09T00:25:38.848Z,4.00
2023-05-09T00:28:06.855Z,4.30
2023-05-09T00:30:35.642Z,4.30
2023-05-09T00:33:21.645Z,4.32
2023-05-09T00:36:06.823Z,4.15
2023-05-09T00:38:45.765Z,4.40
2023-05-09T00:41:18.066Z,3.83
2023-05-09T00:44:28.746Z,4.32
2023-05-09T00:47:09.676Z,4.38
2023-05-09T00:49:39.069Z,4.05
2023-05-09T00:52:06.346Z,3.95
2023-05-09T00:54:33.490Z,4.38
2023-05-09T00:57:00.770Z,4.05
2023-05-09T00:59:28.568Z,3.85
2023-05-09T01:02:08.577Z,3.97
2023-05-09T01:08:52.216Z,4.30
2023-05-09T01:12:03.408Z,4.10
2023-05-09T01:15:06.462Z,4.47
2023-05-09T01:18:11.437Z,4.68
2023-05-09T01:21:01.897Z,4.60
2023-05-09T01:23:44.338Z,4.60
2023-05-09T01:26:47.998Z,4.47
2023-05-09T01:29:52.653Z,4.65
2023-05-09T01:32:32.630Z,4.40
2023-05-09T01:35:20.772Z,4.57
2023-05-09T01:38:13.852Z,4.55
2023-05-09T01:40:54.075Z,4.35
2023-05-09T01:43:27.514Z,5.05
2023-05-09T01:45:57.252Z,4.90
2023-05-09T01:48:28.143Z,4.85
2023-05-09T01:50:58.476Z,4.60
2023-05-09T01:53:28.445Z,4.88
2023-05-09T01:55:59.324Z,4.43
2023-05-09T01:58:27.923Z,4.80
2023-05-09T02:00:55.028Z,4.80
2023-05-09T02:03:23.057Z,4.93
2023-05-09T02:05:52.153Z,4.90
2023-05-09T02:08:22.193Z,4.63
2023-05-09T02:10:50.007Z,5.10
2023-05-09T02:13:17.514Z,5.13
2023-05-09T02:16:03.864Z,5.35
2023-05-09T02:18:32.662Z,5.45
2023-05-09T02:21:07.073Z,5.03
2023-05-09T02:24:23.225Z,5.25
2023-05-09T02:26:51.246Z,5.32
2023-05-09T02:29:27.576Z,4.93
2023-05-09T02:32:17.190Z,4.40
2023-05-09T02:34:52.507Z,5.15
2023-05-09T02:37:52.181Z,5.00
2023-05-09T02:40:25.188Z,5.05
2023-05-09T02:42:52.236Z,4.97
2023-05-09T02:45:19.247Z,4.95
2023-05-09T02:47:46.539Z,4.88
2023-05-09T02:50:13.568Z,5.20
2023-05-09T02:52:41.102Z,4.68
2023-05-09T02:55:09.604Z,4.85
2023-05-09T02:57:39.428Z,5.85
2023-05-09T03:00:10.311Z,5.63
2023-05-09T03:02:38.798Z,5.43
2023-05-09T03:05:10.075Z,4.47
2023-05-09T03:07:39.903Z,4.97
2023-05-09T03:10:08.002Z,4.70
2023-05-09T03:12:35.112Z,5.70
2023-05-09T03:15:02.515Z,4.82
2023-05-09T03:17:30.688Z,4.70
2023-05-09T03:19:58.081Z,4.80
2023-05-09T03:22:25.683Z,6.65
2023-05-09T03:25:11.531Z,5.45
2023-05-09T03:27:51.450Z,4.70
2023-05-09T03:30:24.540Z,5.28
2023-05-09T03:33:01.552Z,5.00
2023-05-09T03:35:39.705Z,4.82
2023-05-09T03:38:13.520Z,4.80
2023-05-09T03:40:44.255Z,4.55
2023-05-09T03:43:20.992Z,4.95
2023-05-09T03:45:49.434Z,5.60
2023-05-09T03:48:25.262Z,4.70
2023-05-09T03:50:52.538Z,4.43
2023-05-09T03:53:20.655Z,4.78
2023-05-09T03:55:49.578Z,4.85
2023-05-09T03:58:19.281Z,4.15
2023-05-09T04:00:46.532Z,4.40
2023-05-09T04:03:20.870Z,4.60
2023-05-09T04:05:50.110Z,4.20
2023-05-09T04:08:59.496Z,4.38
2023-05-09T04:11:52.833Z,4.68
2023-05-09T04:14:36.609Z,5.10
2023-05-09T04:17:08.225Z,4.57
2023-05-09T04:20:02.341Z,4.75
2023-05-09T04:22:29.559Z,4.50
2023-05-09T04:24:59.920Z,4.60
2023-05-09T04:27:28.170Z,5.20
2023-05-09T04:29:55.458Z,4.25
2023-05-09T04:32:23.316Z,4.40
2023-05-09T04:34:50.925Z,4.43
2023-05-09T04:37:23.110Z,4.95
2023-05-09T04:39:50.755Z,4.18
2023-05-09T04:42:24.302Z,4.50
2023-05-09T04:44:51.906Z,3.97
2023-05-09T04:47:20.686Z,4.60
2023-05-09T04:49:47.837Z,4.88
2023-05-09T04:52:14.981Z,3.95
2023-05-09T04:54:43.629Z,4.35
2023-05-09T04:57:17.775Z,4.25
2023-05-09T04:59:59.990Z,4.13
2023-05-09T05:02:27.549Z,3.88
2023-05-09T05:05:06.216Z,3.70
2023-05-09T05:07:39.384Z,3.90
2023-05-09T05:10:07.941Z,4.30
2023-05-09T05:12:36.752Z,3.95
2023-05-09T05:15:06.264Z,4.80
2023-05-09T05:17:34.122Z,4.20
2023-05-09T05:20:06.672Z,3.80
2023-05-09T05:22:34.431Z,3.97
2023-05-09T05:25:03.584Z,4.15
2023-05-09T05:27:31.840Z,4.03
2023-05-09T05:29:59.499Z,4.00
2023-05-09T05:32:49.370Z,4.10
2023-05-09T05:35:25.461Z,3.95
2023-05-09T05:37:53.584Z,4.15
2023-05-09T05:40:26.640Z,4.22
2023-05-09T05:43:08.384Z,3.80
2023-05-09T05:45:40.855Z,3.70
2023-05-09T05:48:27.487Z,4.10
2023-05-09T05:51:21.889Z,3.90
2023-05-09T05:53:49.013Z,4.70
2023-05-09T05:56:17.316Z,3.53
2023-05-09T05:58:45.369Z,4.10
2023-05-09T06:01:13.866Z,4.10
2023-05-09T06:03:41.333Z,3.45
2023-05-09T06:06:40.670Z,3.60
2023-05-09T06:09:07.880Z,3.67
2023-05-09T06:11:36.233Z,2.90
2023-05-09T06:14:04.269Z,3.28
2023-05-09T06:16:54.025Z,3.42
2023-05-09T06:19:21.572Z,3.33
2023-05-09T06:21:48.647Z,3.38
2023-05-09T06:24:23.916Z,3.33
2023-05-09T06:27:02.420Z,3.03
2023-05-09T06:29:29.615Z,2.90
2023-05-09T06:31:56.948Z,3.25
2023-05-09T06:34:24.188Z,2.85
2023-05-09T06:36:51.312Z,3.72
2023-05-09T06:39:18.309Z,3.00
2023-05-09T06:41:48.785Z,3.40
2023-05-09T06:44:24.480Z,3.70
2023-05-09T06:46:51.644Z,3.63
2023-05-09T06:49:19.055Z,2.88
2023-05-09T06:51:46.224Z,3.42
2023-05-09T06:54:13.268Z,2.95
2023-05-09T06:56:40.524Z,3.90
2023-05-09T06:59:07.955Z,3.30
2023-05-09T07:01:36.935Z,3.17
2023-05-09T07:04:04.169Z,3.20
2023-05-09T07:06:31.642Z,2.85
2023-05-09T07:09:04.456Z,2.60
2023-05-09T07:11:36.640Z,3.58
2023-05-09T07:14:06.684Z,3.45
2023-05-09T07:16:37.844Z,3.22
2023-05-09T07:19:08.700Z,3.17
2023-05-09T07:21:36.159Z,3.38
2023-05-09T07:24:04.150Z,3.28
2023-05-09T07:26:35.559Z,3.25
2023-05-09T07:29:04.574Z,2.97
2023-05-09T07:31:34.556Z,3.42
2023-05-09T07:34:03.410Z,3.47
2023-05-09T07:36:35.610Z,3.22
2023-05-09T07:39:05.063Z,3.88
2023-05-09T07:41:32.283Z,3.50
2023-05-09T07:43:59.330Z,3.45
2023-05-09T07:46:26.596Z,3.45
2023-05-09T07:48:53.728Z,3.05
2023-05-09T07:51:21.101Z,3.42
2023-05-09T07:53:48.258Z,3.35
2023-05-09T07:56:15.253Z,3.53
2023-05-09T07:58:42.200Z,3.40
2023-05-09T08:01:09.350Z,3.28
2023-05-09T08:03:36.493Z,3.10
2023-05-09T08:06:04.218Z,4.03
2023-05-09T08:08:31.471Z,3.30
2023-05-09T08:10:58.805Z,3.30
2023-05-09T08:13:26.042Z,3.45
2023-05-09T08:15:53.106Z,2.70
2023-05-09T08:18:20.964Z,3.20
2023-05-09T08:20:48.035Z,4.10
2023-05-09T08:23:15.084Z,3.67
2023-05-09T08:25:44.079Z,3.47
2023-05-09T08:28:14.890Z,3.50
2023-05-09T08:30:42.250Z,3.40
2023-05-09T08:33:09.323Z,3.70
2023-05-09T08:35:39.022Z,3.30
2023-05-09T08:38:06.078Z,3.50
2023-05-09T08:40:38.061Z,3.17
2023-05-09T08:43:08.102Z,3.53
2023-05-09T08:45:53.549Z,2.83
2023-05-09T08:48:22.631Z,3.05
2023-05-09T08:50:50.759Z,3.70
2023-05-09T08:53:18.709Z,3.20
2023-05-09T08:55:56.589Z,3.00
2023-05-09T08:58:41.494Z,3.58
2023-05-09T09:01:34.810Z,2.90
2023-05-09T09:04:15.665Z,3.03
2023-05-09T09:06:43.656Z,3.15
2023-05-09T09:09:14.172Z,3.22
2023-05-09T09:11:42.748Z,3.08
2023-05-09T09:14:23.105Z,3.33
2023-05-09T09:16:58.526Z,3.20
2023-05-09T09:19:31.472Z,3.13
2023-05-09T09:22:10.006Z,3.75
2023-05-09T09:24:50.493Z,3.38
2023-05-09T09:27:52.834Z,3.20
2023-05-09T09:30:50.024Z,3.30
2023-05-09T09:33:22.667Z,2.72
2023-05-09T09:35:57.633Z,2.70
2023-05-09T09:38:25.478Z,3.03
2023-05-09T09:40:52.492Z,3.22
2023-05-09T09:43:20.104Z,3.55
2023-05-09T09:45:51.476Z,3.33
2023-05-09T09:48:51.154Z,2.90
2023-05-09T09:51:37.184Z,2.85
2023-05-09T09:54:08.116Z,2.90
2023-05-09T09:57:38.272Z,3.03
2023-05-09T10:00:08.092Z,2.88
2023-05-09T10:02:51.640Z,2.72
2023-05-09T10:05:24.275Z,3.08
2023-05-09T10:08:04.337Z,2.80
2023-05-09T10:10:34.973Z,2.85
2023-05-09T10:13:12.457Z,3.20
2023-05-09T10:15:53.113Z,3.50
2023-05-09T10:18:32.841Z,3.08
2023-05-09T10:21:11.461Z,2.75
2023-05-09T10:23:58.374Z,3.00
2023-05-09T10:26:38.639Z,2.97
2023-05-09T10:29:16.498Z,3.10
2023-05-09T10:31:54.377Z,2.78
2023-05-09T10:34:25.005Z,2.78
2023-05-09T10:36:54.485Z,3.00
2023-05-09T10:39:22.464Z,2.92
2023-05-09T10:41:51.054Z,2.83
2023-05-09T10:44:19.338Z,2.80
2023-05-09T10:46:47.186Z,2.35
2023-05-09T10:49:14.710Z,2.42
2023-05-09T10:51:42.083Z,2.30
2023-05-09T10:54:30.065Z,2.72
2023-05-09T10:56:58.534Z,2.75
2023-05-09T10:59:42.178Z,2.70
2023-05-09T11:02:20.077Z,2.83
2023-05-09T11:04:47.988Z,2.30
2023-05-09T11:07:30.354Z,2.87
2023-05-09T11:10:25.711Z,2.88
2023-05-09T11:13:09.121Z,2.28
2023-05-09T11:15:50.841Z,2.45
2023-05-09T11:18:18.961Z,1.83
2023-05-09T11:20:49.564Z,2.08
2023-05-09T11:23:19.901Z,2.30
2023-05-09T11:32:10.250Z,1.92
2023-05-09T11:49:29.188Z,1.90
2023-05-09T11:54:53.326Z,2.00
2023-05-09T11:57:20.861Z,1.77
2023-05-09T11:59:48.690Z,1.90
2023-05-09T12:02:15.854Z,2.28
2023-05-09T12:04:44.246Z,1.70
2023-05-09T12:07:14.289Z,1.80
2023-05-09T12:09:43.537Z,1.98
2023-05-09T12:12:12.679Z,2.20
2023-05-09T12:14:41.581Z,1.95
2023-05-09T12:17:08.913Z,2.40
2023-05-09T12:19:36.935Z,1.95
2023-05-09T12:22:06.782Z,1.60
2023-05-09T12:42:09.773Z,1.85
2023-05-09T12:42:37.304Z,1.95
2023-05-09T12:46:02.889Z,2.05
2023-05-09T12:52:43.962Z,2.05
2023-05-09T12:56:18.098Z,1.63
2023-05-09T12:59:13.252Z,2.00
2023-05-09T13:01:56.742Z,2.00
2023-05-09T13:04:35.495Z,2.00
2023-05-09T13:07:11.495Z,2.10
2023-05-09T13:10:21.510Z,1.88
2023-05-09T13:12:50.011Z,2.50
2023-05-09T13:15:20.211Z,2.00
2023-05-09T13:17:49.477Z,2.30
2023-05-09T13:21:48.803Z,2.13
2023-05-09T13:24:15.906Z,1.73
2023-05-09T13:26:43.308Z,2.17
2023-05-09T13:29:10.845Z,1.70
2023-05-09T13:31:38.022Z,1.88
2023-05-09T13:34:05.178Z,2.03
2023-05-09T13:36:32.551Z,2.05
2023-05-09T13:38:59.880Z,2.17
2023-05-09T13:41:27.030Z,2.40
2023-05-09T13:43:54.177Z,2.13
2023-05-09T13:46:21.400Z,2.03
2023-05-09T13:48:50.039Z,2.15
2023-05-09T13:52:52.943Z,2.05
2023-05-09T13:59:03.987Z,2.20
2023-05-09T14:10:11.944Z,1.85
2023-05-09T14:19:37.463Z,1.92
2023-05-09T14:22:04.689Z,1.60
2023-05-09T14:24:33.315Z,2.28
2023-05-09T14:27:00.634Z,2.17
2023-05-09T14:29:27.791Z,2.00
2023-05-09T14:31:55.219Z,2.03
2023-05-09T14:39:10.840Z,2.22
2023-05-09T14:42:48.490Z,2.20
2023-05-09T14:45:48.663Z,2.20
2023-05-09T14:48:23.026Z,2.42
2023-05-09T14:50:58.980Z,2.42
2023-05-09T14:53:27.436Z,2.30
2023-05-09T14:55:55.376Z,2.50
2023-05-09T14:58:23.678Z,2.17
2023-05-09T15:00:52.894Z,2.25
2023-05-09T15:03:20.220Z,2.00
2023-05-09T15:05:47.372Z,2.08
2023-05-09T15:08:14.535Z,2.58
2023-05-09T15:10:41.761Z,2.13
2023-05-09T15:13:08.800Z,2.42
2023-05-09T15:20:25.778Z,2.35
2023-05-09T15:28:27.993Z,2.35
2023-05-09T15:31:53.691Z,2.20
2023-05-09T15:39:05.622Z,2.33
2023-05-09T15:42:19.176Z,2.78
2023-05-09T16:06:20.812Z,2.00
2023-05-09T16:09:12.738Z,2.35
2023-05-09T16:11:52.068Z,2.37
2023-05-09T16:14:19.407Z,2.42
2023-05-09T16:16:49.900Z,2.30
2023-05-09T16:19:17.515Z,2.42
2023-05-09T16:21:47.038Z,2.58
2023-05-09T16:24:14.320Z,2.67
2023-05-09T16:26:41.500Z,2.20
2023-05-09T16:39:29.064Z,2.63
2023-05-09T16:41:57.204Z,2.33
2023-05-09T16:44:45.283Z,2.30
2023-05-09T16:48:04.401Z,2.65
2023-05-09T16:50:32.508Z,2.40
2023-05-09T16:53:00.104Z,2.40
2023-05-09T16:55:27.274Z,2.55
2023-05-09T17:03:36.802Z,2.30
2023-05-09T17:14:20.290Z,2.70
2023-05-09T17:16:47.454Z,2.58
2023-05-09T17:19:16.220Z,2.72
2023-05-09T17:21:43.323Z,2.90
2023-05-09T17:24:10.547Z,2.72
2023-05-09T17:31:03.900Z,2.47
2023-05-09T17:34:17.861Z,3.20
2023-05-09T17:36:56.998Z,2.83
2023-05-09T17:45:31.398Z,2.63
2023-05-09T17:48:40.903Z,2.40
2023-05-09T17:53:34.091Z,2.78
2023-05-09T17:56:01.412Z,2.40
2023-05-09T17:58:28.564Z,2.80
2023-05-09T18:00:55.987Z,2.60
2023-05-09T18:03:23.029Z,2.78
2023-05-09T18:07:28.794Z,2.85
2023-05-09T18:11:42.946Z,2.60
2023-05-09T18:20:02.049Z,2.80
2023-05-09T18:23:48.618Z,3.58
2023-05-09T18:26:31.822Z,2.75
2023-05-09T18:28:59.100Z,2.90
2023-05-09T18:31:26.264Z,2.60
2023-05-09T18:33:53.391Z,2.67
2023-05-09T18:40:30.001Z,2.70
2023-05-09T18:51:35.717Z,3.10
2023-05-09T18:54:16.948Z,2.88
2023-05-09T18:56:44.457Z,3.00
2023-05-09T18:59:13.804Z,3.05
2023-05-09T19:10:46.587Z,3.00
2023-05-09T19:20:47.289Z,3.03
2023-05-09T19:23:14.692Z,3.10
2023-05-09T19:25:45.684Z,3.38
2023-05-09T19:28:23.848Z,3.17
2023-05-09T19:30:57.022Z,3.20
2023-05-09T19:33:45.761Z,3.00
2023-05-09T19:41:05.441Z,3.33
2023-05-09T19:43:32.809Z,3.20
2023-05-09T19:46:05.216Z,3.00
2023-05-09T20:16:17.952Z,3.22
2023-05-09T20:18:46.003Z,3.15
2023-05-09T20:21:20.906Z,3.28
2023-05-09T20:24:03.024Z,3.25
2023-05-09T20:35:57.981Z,2.95
2023-05-09T21:15:51.245Z,3.00
2023-05-09T21:23:00.898Z,3.20
2023-05-09T21:25:58.032Z,3.28
2023-05-09T21:28:25.637Z,3.38
2023-05-09T21:31:07.202Z,3.25
2023-05-09T21:33:35.398Z,3.30
2023-05-09T21:36:02.623Z,3.33
2023-05-09T21:38:29.892Z,3.00
2023-05-09T21:50:38.095Z,2.80
2023-05-09T21:53:08.969Z,2.70
2023-05-09T21:55:41.061Z,3.28
2023-05-09T21:58:13.242Z,3.28
2023-05-09T22:00:46.688Z,2.63
2023-05-09T22:03:16.789Z,3.10
2023-05-09T22:05:44.443Z,2.97
2023-05-09T22:08:26.614Z,2.85
2023-05-09T22:10:55.000Z,3.58
2023-05-09T22:13:22.570Z,2.97
2023-05-09T22:15:49.807Z,2.70
2023-05-09T22:18:17.027Z,2.72
2023-05-09T22:20:44.332Z,3.28
2023-05-09T22:23:11.762Z,2.88
2023-05-09T22:25:38.806Z,2.92
2023-05-09T22:28:05.933Z,3.03
2023-05-09T22:30:33.117Z,3.20
2023-05-09T22:33:00.938Z,2.85
2023-05-09T22:35:28.185Z,3.10
2023-05-09T22:37:55.585Z,3.08
2023-05-09T22:40:27.103Z,3.03
2023-05-09T22:42:56.941Z,3.10
2023-05-09T22:45:26.346Z,2.63
2023-05-09T22:47:54.216Z,2.70
2023-05-09T22:50:21.592Z,2.72
2023-05-09T22:52:48.734Z,2.88
2023-05-09T22:55:15.714Z,3.33
2023-05-09T22:57:42.792Z,2.50
2023-05-09T23:00:10.467Z,2.85
2023-05-09T23:02:37.634Z,3.28
2023-05-09T23:05:05.076Z,2.58
2023-05-09T23:07:32.983Z,2.47
2023-05-09T23:09:59.928Z,3.13
2023-05-09T23:12:27.251Z,2.85
2023-05-09T23:14:54.291Z,2.58
2023-05-09T23:17:35.561Z,2.90
2023-05-09T23:21:02.087Z,2.53
2023-05-09T23:24:35.337Z,2.20
2023-05-09T23:27:45.634Z,2.30
2023-05-09T23:37:27.489Z,2.30
2023-05-09T23:39:54.557Z,2.72
2023-05-09T23:42:21.612Z,2.03
2023-05-09T23:44:48.695Z,2.20
2023-05-09T23:47:16.254Z,2.33
2023-05-09T23:50:15.052Z,2.33
2023-05-09T23:56:33.862Z,2.20
